Time;durP1;ratioP1;P1;durP2;ratioP2;P2;SDS_P1;SDS_P2;PMS_P1;PMS_P2;Temp;Humidity;BMP_temperature;BMP_pressure;BME280_temperature;BME280_humidity;BME280_pressure;Samples;Min_cycle;Max_cycle;Signal;HPM_P1;HPM_P2
2021/08/26 00:07:33;;;;;;;6.40;4.70;;;14.30;72.10;;;;;;4968857;28;20113;-64
2021/08/26 00:10:02;;;;;;;7.10;4.80;;;14.40;71.80;;;;;;4990065;28;20046;-64
2021/08/26 00:12:29;;;;;;;7.53;4.53;;;14.40;71.90;;;;;;4977821;28;20121;-64
2021/08/26 00:14:55;;;;;;;6.68;4.85;;;14.40;72.00;;;;;;4985754;28;20410;-63
2021/08/26 00:17:20;;;;;;;8.40;5.22;;;14.40;72.00;;;;;;4977396;28;20042;-63
2021/08/26 00:19:46;;;;;;;7.25;4.82;;;14.40;71.80;;;;;;4973982;28;20061;-64
2021/08/26 00:22:13;;;;;;;9.23;5.53;;;14.40;71.80;;;;;;4977170;28;20042;-64
2021/08/26 00:24:38;;;;;;;6.75;5.07;;;14.40;71.80;;;;;;4974850;28;20026;-64
2021/08/26 00:27:05;;;;;;;7.32;5.10;;;14.30;71.60;;;;;;4975100;28;20519;-64
2021/08/26 00:29:31;;;;;;;7.53;5.22;;;14.30;71.70;;;;;;4975590;28;20106;-63
2021/08/26 00:31:57;;;;;;;7.95;5.00;;;14.20;71.80;;;;;;4967962;28;21055;-64
2021/08/26 00:34:22;;;;;;;7.43;5.47;;;14.10;71.80;;;;;;4976015;28;20584;-63
2021/08/26 00:36:48;;;;;;;8.38;5.22;;;14.10;72.00;;;;;;4979208;28;22003;-64
2021/08/26 00:39:14;;;;;;;7.22;5.28;;;14.10;72.00;;;;;;4972483;28;20126;-64
2021/08/26 00:41:41;;;;;;;7.93;5.20;;;14.10;72.20;;;;;;4977527;28;20038;-64
2021/08/26 00:44:07;;;;;;;8.02;5.03;;;14.10;72.30;;;;;;4970713;28;20058;-64
2021/08/26 00:46:32;;;;;;;6.57;5.03;;;14.10;72.40;;;;;;4983255;28;20050;-64
2021/08/26 00:48:58;;;;;;;7.80;4.72;;;14.00;72.20;;;;;;4981294;28;20561;-64
2021/08/26 00:51:24;;;;;;;6.63;5.05;;;14.00;72.20;;;;;;4975870;28;20035;-63
2021/08/26 00:53:51;;;;;;;9.00;5.18;;;13.90;72.30;;;;;;4970297;28;20061;-64
2021/08/26 00:56:17;;;;;;;7.60;5.43;;;13.90;72.30;;;;;;4980390;28;20038;-64
2021/08/26 00:58:45;;;;;;;7.72;5.15;;;13.90;72.40;;;;;;4982597;28;20523;-64
2021/08/26 01:01:11;;;;;;;5.85;4.55;;;13.80;72.60;;;;;;4974711;28;20038;-64
2021/08/26 01:03:49;;;;;;;8.07;5.05;;;13.80;72.60;;;;;;4970542;28;20080;-64
2021/08/26 01:06:22;;;;;;;6.63;4.70;;;13.80;73.30;;;;;;4973056;28;20514;-64
2021/08/26 01:09:00;;;;;;;7.03;5.07;;;13.80;73.50;;;;;;4974757;28;20619;-64
2021/08/26 01:11:26;;;;;;;7.65;5.28;;;13.80;73.50;;;;;;4989769;28;20521;-64
2021/08/26 01:13:52;;;;;;;7.63;5.53;;;13.80;73.20;;;;;;4988219;28;20039;-64
2021/08/26 01:16:18;;;;;;;10.15;5.38;;;13.80;73.00;;;;;;4988095;28;20526;-64
2021/08/26 01:18:46;;;;;;;7.00;5.07;;;13.80;73.00;;;;;;4981424;28;20038;-64
2021/08/26 01:21:14;;;;;;;7.82;5.28;;;13.80;73.10;;;;;;4985055;28;20043;-64
2021/08/26 01:23:44;;;;;;;6.82;4.97;;;13.70;74.00;;;;;;4982653;28;20686;-64
2021/08/26 01:26:22;;;;;;;9.23;5.47;;;13.70;73.30;;;;;;4981370;28;20039;-64
2021/08/26 01:28:50;;;;;;;8.10;5.20;;;13.70;73.60;;;;;;4983992;28;20129;-64
2021/08/26 01:31:17;;;;;;;7.65;5.25;;;13.70;73.30;;;;;;4981460;28;20039;-63
2021/08/26 01:33:45;;;;;;;7.88;4.95;;;13.70;73.50;;;;;;4984669;28;20042;-64
2021/08/26 01:36:11;;;;;;;8.52;5.30;;;13.70;73.30;;;;;;4981201;28;20038;-64
2021/08/26 01:38:37;;;;;;;7.88;4.95;;;13.70;73.40;;;;;;4974875;28;20046;-64
2021/08/26 01:41:03;;;;;;;8.15;5.65;;;13.70;73.60;;;;;;4976367;28;22555;-64
2021/08/26 01:43:31;;;;;;;7.15;5.00;;;13.70;73.70;;;;;;4980368;28;20045;-63
2021/08/26 01:45:57;;;;;;;7.72;5.07;;;13.80;73.70;;;;;;4981064;28;20469;-64
2021/08/26 01:48:22;;;;;;;7.57;5.10;;;13.80;73.60;;;;;;4982752;28;20133;-63
2021/08/26 01:50:50;;;;;;;6.20;4.60;;;13.80;73.50;;;;;;4999401;28;20085;-64
2021/08/26 01:53:16;;;;;;;7.90;5.35;;;13.80;73.50;;;;;;4978441;28;20034;-64
2021/08/26 01:55:42;;;;;;;8.63;5.53;;;13.80;73.40;;;;;;4983008;28;20139;-64
2021/08/26 01:58:09;;;;;;;8.07;5.32;;;13.80;73.30;;;;;;4981793;28;20085;-64
2021/08/26 02:00:35;;;;;;;8.52;5.50;;;13.80;73.10;;;;;;4982676;28;20035;-64
2021/08/26 02:03:01;;;;;;;8.68;5.40;;;13.90;73.00;;;;;;4976653;28;20061;-62
2021/08/26 02:05:26;;;;;;;9.60;5.47;;;13.90;73.10;;;;;;4980652;28;20147;-64
2021/08/26 02:07:52;;;;;;;7.72;5.45;;;13.90;73.10;;;;;;4976049;28;20206;-63
2021/08/26 02:10:18;;;;;;;9.82;4.88;;;13.80;73.20;;;;;;4978664;28;20044;-64
2021/08/26 02:12:43;;;;;;;9.93;5.82;;;13.80;73.40;;;;;;4980956;28;20034;-64
2021/08/26 02:15:10;;;;;;;8.75;5.57;;;13.80;73.60;;;;;;4985755;28;20065;-64
2021/08/26 02:17:36;;;;;;;10.32;5.72;;;13.70;73.90;;;;;;4984345;28;20042;-64
2021/08/26 02:20:04;;;;;;;9.68;5.68;;;13.70;74.10;;;;;;4992185;28;20038;-64
2021/08/26 02:22:30;;;;;;;8.77;5.55;;;13.70;74.30;;;;;;4980592;28;20039;-63
2021/08/26 02:24:55;;;;;;;9.05;5.60;;;13.80;74.40;;;;;;4970814;28;20134;-63
2021/08/26 02:27:21;;;;;;;11.70;6.35;;;13.80;74.40;;;;;;4977706;28;20419;-64
2021/08/26 02:29:46;;;;;;;11.10;6.35;;;13.90;74.20;;;;;;4978492;28;20514;-63
2021/08/26 02:32:12;;;;;;;8.82;6.57;;;13.90;74.20;;;;;;4979051;28;20038;-64
2021/08/26 02:34:38;;;;;;;10.35;6.90;;;13.90;74.10;;;;;;4988820;28;20109;-63
2021/08/26 02:37:04;;;;;;;9.80;6.85;;;13.90;74.10;;;;;;4987510;28;20098;-64
2021/08/26 02:39:30;;;;;;;9.40;6.45;;;13.80;74.10;;;;;;4982022;28;20038;-64
2021/08/26 02:41:56;;;;;;;8.38;6.60;;;13.90;74.40;;;;;;4970534;28;20038;-65
2021/08/26 02:44:22;;;;;;;9.45;6.45;;;13.80;74.50;;;;;;4991291;28;20061;-63
2021/08/26 02:46:47;;;;;;;9.73;6.70;;;13.80;74.50;;;;;;4983727;28;20053;-64
2021/08/26 02:49:13;;;;;;;9.48;6.55;;;13.90;74.60;;;;;;4980312;28;20030;-64
2021/08/26 02:51:39;;;;;;;9.70;6.25;;;13.90;74.70;;;;;;4977331;28;20023;-64
2021/08/26 02:54:04;;;;;;;10.57;6.65;;;14.00;74.80;;;;;;4981406;28;20031;-64
2021/08/26 02:56:30;;;;;;;9.10;6.60;;;14.00;75.50;;;;;;4969014;28;20045;-63
2021/08/26 02:58:56;;;;;;;7.95;6.10;;;14.00;74.60;;;;;;4972715;28;20052;-64
2021/08/26 03:01:21;;;;;;;9.35;6.78;;;14.00;74.50;;;;;;4985755;28;20061;-64
2021/08/26 03:03:47;;;;;;;8.93;6.63;;;14.00;74.40;;;;;;4978563;28;20042;-63
2021/08/26 03:06:12;;;;;;;9.23;6.25;;;14.00;74.50;;;;;;4976722;28;20418;-64
2021/08/26 03:08:38;;;;;;;9.95;5.68;;;14.00;74.70;;;;;;4981154;28;20037;-63
2021/08/26 03:11:03;;;;;;;10.38;6.07;;;14.00;74.60;;;;;;4975753;28;20035;-63
2021/08/26 03:13:29;;;;;;;8.98;6.15;;;14.10;74.60;;;;;;4979823;28;20494;-63
2021/08/26 03:15:55;;;;;;;11.02;6.05;;;14.10;74.50;;;;;;4978283;28;20042;-64
2021/08/26 03:18:20;;;;;;;8.65;6.70;;;14.20;74.60;;;;;;4982076;28;20045;-63
2021/08/26 03:20:47;;;;;;;8.10;6.30;;;14.10;74.50;;;;;;4982038;28;20060;-64
2021/08/26 03:23:12;;;;;;;9.85;5.78;;;14.20;74.40;;;;;;4983198;28;20521;-64
2021/08/26 03:25:38;;;;;;;12.45;5.85;;;14.20;74.40;;;;;;4981036;28;20034;-63
2021/08/26 03:28:04;;;;;;;9.57;5.82;;;14.20;74.40;;;;;;4972790;28;20046;-64
2021/08/26 03:30:29;;;;;;;6.72;5.15;;;14.20;74.40;;;;;;4980212;28;20031;-63
2021/08/26 03:32:55;;;;;;;9.05;5.88;;;14.20;74.40;;;;;;4977154;28;20508;-64
2021/08/26 03:35:21;;;;;;;8.88;5.78;;;14.20;74.20;;;;;;4981540;28;20046;-63
2021/08/26 03:37:46;;;;;;;10.57;5.65;;;14.30;74.30;;;;;;4986967;28;20058;-64
2021/08/26 03:40:12;;;;;;;8.13;5.43;;;14.30;74.40;;;;;;4979487;28;20062;-65
2021/08/26 03:42:38;;;;;;;7.68;5.43;;;14.30;74.20;;;;;;4979352;28;20510;-64
2021/08/26 03:45:04;;;;;;;10.07;6.03;;;14.30;74.20;;;;;;4979722;28;20034;-64
2021/08/26 03:47:30;;;;;;;7.57;5.60;;;14.30;74.00;;;;;;4969186;28;20054;-64
2021/08/26 03:49:56;;;;;;;8.38;5.35;;;14.30;73.90;;;;;;4986099;28;20026;-64
2021/08/26 03:52:21;;;;;;;8.48;5.45;;;14.30;73.70;;;;;;4985196;28;20122;-64
2021/08/26 03:54:47;;;;;;;10.70;6.07;;;14.40;73.50;;;;;;4984728;28;20034;-64
2021/08/26 03:57:13;;;;;;;9.45;6.05;;;14.30;73.30;;;;;;4976178;28;20117;-63
2021/08/26 03:59:38;;;;;;;14.48;5.50;;;14.30;73.20;;;;;;4976643;28;20090;-64
2021/08/26 04:02:04;;;;;;;7.47;5.75;;;14.30;73.30;;;;;;4977016;28;20384;-63
2021/08/26 04:04:29;;;;;;;11.32;6.13;;;14.30;73.40;;;;;;4982703;28;20061;-64
2021/08/26 04:06:55;;;;;;;9.50;6.10;;;14.30;73.40;;;;;;4977067;28;20038;-64
2021/08/26 04:09:21;;;;;;;15.15;6.20;;;14.30;73.30;;;;;;4979477;28;20038;-63
2021/08/26 04:11:46;;;;;;;10.43;6.30;;;14.30;73.30;;;;;;4980515;28;20043;-64
2021/08/26 04:14:12;;;;;;;9.90;5.47;;;14.30;73.20;;;;;;5000266;28;20081;-64
2021/08/26 04:16:38;;;;;;;10.23;5.60;;;14.30;73.20;;;;;;4976736;28;20030;-64
2021/08/26 04:19:03;;;;;;;11.30;5.90;;;14.30;73.20;;;;;;4976733;28;20469;-63
2021/08/26 04:21:29;;;;;;;12.35;6.32;;;14.20;73.00;;;;;;4973578;28;20113;-64
2021/08/26 04:23:55;;;;;;;13.52;6.47;;;14.20;73.00;;;;;;4985723;28;20034;-64
2021/08/26 04:26:20;;;;;;;10.90;6.13;;;14.20;73.20;;;;;;4981818;28;20042;-63
2021/08/26 04:28:46;;;;;;;9.90;6.20;;;14.10;73.30;;;;;;4973811;28;20110;-64
2021/08/26 04:31:11;;;;;;;10.80;6.43;;;14.10;73.20;;;;;;4975826;28;20121;-64
2021/08/26 04:33:37;;;;;;;11.80;6.18;;;14.00;73.30;;;;;;4978874;28;20093;-64
2021/08/26 04:36:03;;;;;;;13.95;6.47;;;13.90;73.50;;;;;;4977782;28;20027;-64
2021/08/26 04:38:28;;;;;;;8.23;5.60;;;13.90;73.80;;;;;;4977204;28;20094;-63
2021/08/26 04:40:54;;;;;;;8.75;6.13;;;13.90;74.00;;;;;;5000413;28;20042;-64
2021/08/26 04:43:20;;;;;;;9.93;6.15;;;13.90;74.40;;;;;;4978411;28;20031;-64
2021/08/26 04:45:45;;;;;;;10.88;6.78;;;13.90;74.60;;;;;;4979131;28;20137;-63
2021/08/26 04:48:11;;;;;;;11.70;7.00;;;13.80;74.70;;;;;;4977034;28;20092;-63
2021/08/26 04:50:37;;;;;;;9.85;6.63;;;13.80;74.90;;;;;;4980178;28;20137;-64
2021/08/26 04:53:02;;;;;;;9.93;6.88;;;13.90;75.00;;;;;;4985630;28;20686;-64
2021/08/26 04:55:28;;;;;;;11.63;6.50;;;13.90;74.90;;;;;;4981237;28;20093;-64
2021/08/26 04:57:54;;;;;;;11.18;6.47;;;13.90;74.80;;;;;;4983541;28;20132;-64
2021/08/26 05:00:19;;;;;;;10.32;6.70;;;13.90;74.70;;;;;;4994046;28;20045;-63
2021/08/26 05:02:45;;;;;;;9.15;6.50;;;13.90;74.60;;;;;;4976105;28;20042;-64
2021/08/26 05:05:11;;;;;;;12.57;6.15;;;13.90;74.60;;;;;;4973617;28;20461;-63
2021/08/26 05:07:36;;;;;;;9.73;6.22;;;13.90;74.70;;;;;;4971984;28;20042;-64
2021/08/26 05:10:03;;;;;;;9.70;6.50;;;13.90;74.60;;;;;;4979176;28;20049;-64
2021/08/26 05:12:30;;;;;;;11.77;6.18;;;13.90;74.60;;;;;;4967297;28;20050;-63
2021/08/26 05:14:56;;;;;;;12.45;6.20;;;13.90;74.50;;;;;;4978818;28;20597;-63
2021/08/26 05:17:22;;;;;;;9.00;6.35;;;13.90;74.50;;;;;;4974828;28;20023;-64
2021/08/26 05:19:47;;;;;;;7.47;6.05;;;13.80;74.40;;;;;;4976961;28;20042;-64
2021/08/26 05:22:13;;;;;;;9.32;6.55;;;13.80;74.60;;;;;;4968160;28;20093;-64
2021/08/26 05:24:39;;;;;;;7.70;5.82;;;13.80;74.70;;;;;;4979477;28;20034;-63
2021/08/26 05:27:04;;;;;;;9.73;6.18;;;13.80;74.80;;;;;;4972951;28;20030;-63
2021/08/26 05:29:30;;;;;;;8.40;5.88;;;13.70;75.00;;;;;;4971108;28;20140;-64
2021/08/26 05:31:55;;;;;;;8.05;5.88;;;13.70;75.30;;;;;;4971744;28;20038;-63
2021/08/26 05:34:21;;;;;;;9.13;6.55;;;13.70;75.60;;;;;;4976921;28;20042;-64
2021/08/26 05:36:47;;;;;;;8.25;6.32;;;13.70;76.00;;;;;;4971209;28;20413;-64
2021/08/26 05:39:12;;;;;;;9.20;6.50;;;13.70;76.10;;;;;;4974391;28;20137;-63
2021/08/26 05:41:44;;;;;;;8.43;6.50;;;13.80;76.30;;;;;;4975611;28;20724;-63
2021/08/26 05:44:12;;;;;;;7.25;6.13;;;13.80;76.40;;;;;;4976451;28;20026;-64
2021/08/26 05:46:37;;;;;;;7.07;5.82;;;13.80;76.50;;;;;;4976337;28;20030;-63
2021/08/26 05:49:03;;;;;;;8.88;6.68;;;13.90;76.50;;;;;;4996776;28;20549;-64
2021/08/26 05:51:28;;;;;;;9.20;6.30;;;14.00;76.60;;;;;;4975470;28;20062;-63
2021/08/26 05:53:54;;;;;;;8.45;6.75;;;14.00;76.60;;;;;;4973550;28;20057;-64
2021/08/26 05:56:20;;;;;;;15.65;6.43;;;14.10;76.60;;;;;;4972311;28;20049;-65
2021/08/26 05:58:45;;;;;;;9.75;6.30;;;14.20;76.50;;;;;;4970544;28;20133;-63
2021/08/26 06:01:11;;;;;;;6.25;5.43;;;14.30;76.50;;;;;;4972804;28;20023;-63
2021/08/26 06:03:37;;;;;;;8.95;5.68;;;14.30;76.40;;;;;;4971450;28;20081;-63
2021/08/26 06:06:02;;;;;;;10.77;5.70;;;14.40;76.60;;;;;;4993374;28;20043;-63
2021/08/26 06:08:29;;;;;;;12.02;5.93;;;14.50;76.60;;;;;;4983901;28;20039;-64
2021/08/26 06:10:55;;;;;;;10.27;5.75;;;14.60;76.70;;;;;;4979602;28;20034;-64
2021/08/26 06:13:21;;;;;;;8.32;5.75;;;14.70;76.80;;;;;;4970599;28;20074;-63
2021/08/26 06:15:46;;;;;;;8.80;5.60;;;14.80;76.60;;;;;;4971003;28;20046;-63
2021/08/26 06:18:12;;;;;;;7.72;5.13;;;14.90;76.60;;;;;;4971603;28;20042;-63
2021/08/26 06:20:39;;;;;;;7.75;5.55;;;14.90;76.30;;;;;;4978192;28;20629;-63
2021/08/26 06:23:05;;;;;;;10.40;5.28;;;15.00;75.90;;;;;;4971449;28;20043;-64
2021/08/26 06:25:31;;;;;;;10.65;5.80;;;15.10;75.60;;;;;;4974604;28;20037;-65
2021/08/26 06:27:59;;;;;;;8.75;5.50;;;15.20;75.40;;;;;;4946613;28;20181;-64
2021/08/26 06:30:25;;;;;;;7.10;5.15;;;15.30;75.30;;;;;;4955528;28;20471;-63
2021/08/26 06:32:51;;;;;;;7.72;5.30;;;15.40;76.10;;;;;;4966971;28;20524;-65
2021/08/26 06:35:17;;;;;;;7.68;5.53;;;15.50;75.10;;;;;;4971238;28;20169;-64
2021/08/26 06:37:42;;;;;;;7.18;5.28;;;15.60;75.10;;;;;;4970355;28;20126;-64
2021/08/26 06:40:08;;;;;;;8.20;5.57;;;15.60;75.60;;;;;;4972561;28;20034;-64
2021/08/26 06:42:34;;;;;;;7.07;5.20;;;15.70;74.80;;;;;;4973714;28;20124;-64
2021/08/26 06:45:00;;;;;;;9.02;5.40;;;15.80;74.60;;;;;;4990660;28;20145;-65
2021/08/26 06:47:25;;;;;;;7.22;5.38;;;15.90;74.20;;;;;;4970160;28;20534;-64
2021/08/26 06:49:51;;;;;;;7.78;5.50;;;16.00;74.20;;;;;;4977408;28;20564;-64
2021/08/26 06:52:17;;;;;;;6.75;5.35;;;16.00;73.90;;;;;;4977359;28;20596;-64
2021/08/26 06:54:43;;;;;;;7.78;5.50;;;16.10;73.60;;;;;;4976936;28;20046;-64
2021/08/26 06:57:08;;;;;;;10.07;5.72;;;16.10;73.20;;;;;;4978407;28;20062;-64
2021/08/26 06:59:34;;;;;;;7.03;5.35;;;16.20;73.10;;;;;;4972406;28;20409;-64
2021/08/26 07:02:00;;;;;;;9.23;5.90;;;16.30;73.00;;;;;;4963794;28;20088;-63
2021/08/26 07:04:26;;;;;;;8.25;5.60;;;16.40;72.90;;;;;;4978916;28;20061;-64
2021/08/26 07:06:52;;;;;;;8.75;5.10;;;16.40;72.60;;;;;;4975961;28;20038;-64
2021/08/26 07:09:18;;;;;;;9.02;5.20;;;16.50;72.50;;;;;;4979443;28;20033;-64
2021/08/26 07:11:44;;;;;;;7.55;5.07;;;16.60;72.40;;;;;;4976142;28;20030;-64
2021/08/26 07:14:09;;;;;;;6.60;5.22;;;16.60;72.30;;;;;;4968898;28;20034;-64
2021/08/26 07:16:35;;;;;;;10.13;5.60;;;16.70;72.30;;;;;;4979756;28;20034;-64
2021/08/26 07:19:01;;;;;;;8.30;6.00;;;16.70;72.10;;;;;;4975183;28;20041;-64
2021/08/26 07:21:26;;;;;;;7.60;5.88;;;16.80;72.10;;;;;;4972895;28;20102;-64
2021/08/26 07:23:52;;;;;;;8.45;5.50;;;16.90;72.10;;;;;;4975511;28;20678;-64
2021/08/26 07:26:19;;;;;;;7.15;5.47;;;16.90;71.80;;;;;;4979857;28;20035;-64
2021/08/26 07:28:45;;;;;;;9.23;5.88;;;17.00;71.80;;;;;;4990375;28;20046;-64
2021/08/26 07:31:11;;;;;;;11.25;5.97;;;17.00;71.60;;;;;;4980793;28;20026;-64
2021/08/26 07:33:36;;;;;;;8.10;5.50;;;17.10;71.70;;;;;;4990545;28;20096;-64
2021/08/26 07:36:03;;;;;;;8.57;5.25;;;17.20;71.40;;;;;;4978441;28;20085;-65
2021/08/26 07:38:29;;;;;;;7.50;5.07;;;17.20;71.10;;;;;;4996147;28;20030;-65
2021/08/26 07:40:54;;;;;;;7.88;5.72;;;17.30;70.90;;;;;;4982504;28;20045;-64
2021/08/26 07:43:23;;;;;;;8.32;5.43;;;17.40;70.70;;;;;;4977090;28;20093;-65
2021/08/26 07:45:48;;;;;;;9.38;6.10;;;17.40;70.40;;;;;;4989282;28;20059;-64
2021/08/26 07:48:14;;;;;;;8.20;5.80;;;17.50;70.20;;;;;;4974804;28;20125;-64
2021/08/26 07:50:40;;;;;;;9.25;5.93;;;17.50;70.20;;;;;;4975126;28;20153;-64
2021/08/26 07:53:05;;;;;;;10.02;5.97;;;17.60;70.00;;;;;;4976852;28;20944;-65
2021/08/26 07:55:31;;;;;;;7.13;5.78;;;17.60;69.80;;;;;;4981510;28;20153;-65
2021/08/26 07:57:56;;;;;;;8.40;5.78;;;17.70;70.00;;;;;;4992000;28;20053;-65
2021/08/26 08:00:22;;;;;;;8.25;5.57;;;17.70;70.00;;;;;;4996294;28;20702;-64
2021/08/26 08:02:48;;;;;;;8.90;5.88;;;17.80;70.00;;;;;;4977412;28;20493;-64
2021/08/26 08:05:14;;;;;;;7.45;5.57;;;17.90;69.70;;;;;;4980989;28;20034;-64
2021/08/26 08:07:44;;;;;;;8.95;5.32;;;17.90;69.70;;;;;;4970016;28;20050;-64
2021/08/26 08:10:11;;;;;;;8.45;5.40;;;17.90;69.70;;;;;;4996078;28;20569;-65
2021/08/26 08:12:36;;;;;;;7.72;5.70;;;18.00;69.80;;;;;;4977819;28;20031;-64
2021/08/26 08:15:02;;;;;;;7.60;5.32;;;18.00;69.30;;;;;;4979628;28;20034;-64
2021/08/26 08:17:28;;;;;;;9.68;5.80;;;18.10;69.20;;;;;;4980637;28;20037;-65
2021/08/26 08:19:53;;;;;;;8.45;5.57;;;18.20;68.70;;;;;;4982800;28;20398;-65
2021/08/26 08:22:19;;;;;;;7.85;5.45;;;18.20;68.30;;;;;;4969222;28;20034;-64
2021/08/26 08:24:44;;;;;;;6.85;5.38;;;18.20;68.10;;;;;;4976800;28;20125;-64
2021/08/26 08:27:10;;;;;;;8.48;5.30;;;18.30;68.40;;;;;;4974228;28;20038;-65
2021/08/26 08:29:36;;;;;;;7.25;5.18;;;18.30;68.40;;;;;;4984890;28;20054;-64
2021/08/26 08:32:02;;;;;;;7.40;5.30;;;18.30;68.40;;;;;;4978478;28;20038;-63
2021/08/26 08:34:27;;;;;;;8.25;5.30;;;18.30;68.10;;;;;;4980799;28;20137;-64
2021/08/26 08:36:53;;;;;;;6.60;5.18;;;18.40;68.00;;;;;;4979492;28;20202;-65
2021/08/26 08:39:20;;;;;;;7.55;6.10;;;18.40;68.00;;;;;;4983689;28;20138;-65
2021/08/26 08:41:47;;;;;;;7.88;5.20;;;18.40;67.60;;;;;;4980104;28;20042;-65
2021/08/26 08:44:13;;;;;;;6.93;5.45;;;18.40;67.60;;;;;;4978861;28;20061;-65
2021/08/26 08:46:39;;;;;;;8.10;5.78;;;18.40;67.90;;;;;;4975238;28;20066;-65
2021/08/26 08:49:07;;;;;;;8.38;5.93;;;18.40;67.80;;;;;;4978196;28;20166;-65
2021/08/26 08:51:33;;;;;;;8.40;5.22;;;18.50;67.60;;;;;;4979266;28;20048;-64
2021/08/26 08:53:59;;;;;;;8.80;5.05;;;18.50;67.40;;;;;;4972984;28;20049;-65
2021/08/26 08:56:26;;;;;;;9.20;5.10;;;18.50;67.30;;;;;;4992525;28;20478;-64
2021/08/26 08:58:57;;;;;;;7.03;5.22;;;18.60;67.10;;;;;;4973332;28;20046;-64
2021/08/26 09:01:22;;;;;;;7.47;5.18;;;18.50;66.90;;;;;;4978302;28;20030;-65
2021/08/26 09:03:48;;;;;;;8.43;5.78;;;18.60;67.00;;;;;;4976875;28;20145;-65
2021/08/26 09:06:14;;;;;;;6.43;5.15;;;18.60;66.90;;;;;;4994265;28;20035;-65
2021/08/26 09:08:40;;;;;;;9.68;5.07;;;18.60;66.90;;;;;;4973779;28;20057;-64
2021/08/26 09:11:12;;;;;;;7.18;5.43;;;18.60;66.90;;;;;;4994592;28;20464;-65
2021/08/26 09:13:39;;;;;;;7.43;4.97;;;18.60;67.40;;;;;;4984655;28;20100;-65
2021/08/26 09:16:05;;;;;;;9.10;5.32;;;18.60;67.40;;;;;;4987721;28;20105;-64
2021/08/26 09:18:31;;;;;;;8.02;5.40;;;18.60;67.30;;;;;;4989515;28;20034;-64
2021/08/26 09:21:11;;;;;;;7.80;5.70;;;18.60;67.30;;;;;;4981554;28;20545;-65
2021/08/26 09:24:00;;;;;;;8.00;5.20;;;18.60;68.50;;;;;;4983895;28;20046;-64
2021/08/26 09:26:28;;;;;;;6.07;4.85;;;18.70;68.00;;;;;;4988077;28;20038;-64
2021/08/26 09:28:59;;;;;;;5.68;5.03;;;18.70;68.40;;;;;;4987581;28;20647;-64
2021/08/26 09:31:28;;;;;;;8.32;5.35;;;18.70;68.80;;;;;;4986826;28;20046;-64
2021/08/26 09:33:58;;;;;;;7.00;5.05;;;18.70;68.60;;;;;;4985282;28;20034;-64
2021/08/26 09:36:35;;;;;;;10.30;5.43;;;18.70;68.60;;;;;;5000716;28;20050;-64
2021/08/26 09:39:03;;;;;;;5.93;5.32;;;18.80;68.60;;;;;;4985184;28;20041;-65
2021/08/26 09:41:40;;;;;;;8.75;5.97;;;18.80;68.90;;;;;;4986504;28;20043;-65
2021/08/26 09:44:07;;;;;;;6.53;5.18;;;18.80;68.30;;;;;;4980924;28;20035;-65
2021/08/26 09:46:33;;;;;;;7.90;5.38;;;18.80;68.60;;;;;;4985395;28;20065;-65
2021/08/26 09:49:08;;;;;;;9.25;5.93;;;18.80;68.60;;;;;;4986216;28;20034;-65
2021/08/26 09:51:34;;;;;;;7.35;5.38;;;18.80;68.50;;;;;;4988184;28;20045;-65
2021/08/26 09:54:00;;;;;;;7.85;4.80;;;18.90;68.60;;;;;;4986679;28;20037;-65
2021/08/26 09:56:41;;;;;;;6.18;5.00;;;18.90;68.70;;;;;;4984646;28;20110;-65
2021/08/26 09:59:07;;;;;;;7.22;5.05;;;18.90;68.70;;;;;;4986281;28;20041;-65
2021/08/26 10:01:36;;;;;;;8.07;5.22;;;18.90;68.70;;;;;;4979405;28;20030;-65
2021/08/26 10:04:03;;;;;;;6.78;5.47;;;19.00;68.60;;;;;;4985615;28;20043;-65
2021/08/26 10:06:30;;;;;;;8.60;5.35;;;19.00;68.10;;;;;;4986100;28;20509;-64
2021/08/26 10:08:56;;;;;;;7.65;5.22;;;19.00;68.00;;;;;;4983696;28;20035;-65
2021/08/26 10:11:23;;;;;;;7.28;5.32;;;19.10;68.00;;;;;;4979113;28;20049;-65
2021/08/26 10:13:50;;;;;;;8.10;5.68;;;19.10;67.10;;;;;;4985870;28;20031;-65
2021/08/26 10:16:16;;;;;;;8.30;5.15;;;19.10;67.00;;;;;;4988837;28;20050;-65
2021/08/26 10:18:41;;;;;;;7.75;5.82;;;19.10;67.40;;;;;;4988200;28;20027;-65
2021/08/26 10:21:09;;;;;;;6.78;5.28;;;19.10;67.30;;;;;;4988128;28;20097;-65
2021/08/26 10:23:38;;;;;;;10.48;5.47;;;19.00;66.90;;;;;;4983573;28;20494;-65
2021/08/26 10:26:05;;;;;;;8.30;5.43;;;19.00;66.20;;;;;;4989060;28;20502;-65
2021/08/26 10:28:34;;;;;;;7.15;5.40;;;19.00;66.80;;;;;;4987621;28;20030;-64
2021/08/26 10:31:20;;;;;;;8.30;5.43;;;18.90;66.60;;;;;;4988406;28;20117;-64
2021/08/26 10:33:45;;;;;;;7.97;5.13;;;18.90;66.90;;;;;;4986270;28;20113;-65
2021/08/26 10:36:13;;;;;;;8.38;5.55;;;18.90;66.90;;;;;;4998810;28;20111;-65
2021/08/26 10:38:39;;;;;;;8.70;5.75;;;18.90;66.20;;;;;;4987470;28;20038;-65
2021/08/26 10:41:17;;;;;;;12.38;5.15;;;18.90;66.40;;;;;;4988993;28;20030;-65
2021/08/26 10:43:44;;;;;;;8.50;5.88;;;18.80;66.10;;;;;;4987501;28;20045;-65
2021/08/26 10:46:12;;;;;;;8.00;5.57;;;18.80;66.60;;;;;;4989000;28;20037;-65
2021/08/26 10:48:39;;;;;;;7.40;5.60;;;18.80;66.20;;;;;;4987537;28;20049;-65
2021/08/26 10:51:17;;;;;;;10.27;5.75;;;18.90;65.70;;;;;;4986159;28;20426;-65
2021/08/26 10:53:46;;;;;;;7.32;5.50;;;18.90;65.20;;;;;;4979035;28;20038;-65
2021/08/26 10:56:19;;;;;;;9.05;5.68;;;18.90;65.20;;;;;;4984014;28;20030;-65
2021/08/26 10:58:50;;;;;;;8.75;5.53;;;18.90;65.50;;;;;;4983881;28;20045;-65
2021/08/26 11:01:27;;;;;;;8.27;6.07;;;18.90;66.20;;;;;;4972515;28;20418;-64
2021/08/26 11:04:31;;;;;;;8.98;6.35;;;18.90;66.30;;;;;;4984960;28;20049;-64
2021/08/26 11:06:57;;;;;;;9.48;6.35;;;18.90;66.60;;;;;;4975003;28;20038;-64
2021/08/26 11:09:28;;;;;;;8.38;5.68;;;18.90;66.20;;;;;;4985099;28;20050;-65
2021/08/26 11:12:03;;;;;;;7.68;5.93;;;18.90;66.10;;;;;;4988163;28;20054;-64
2021/08/26 11:14:33;;;;;;;8.23;6.13;;;18.80;66.40;;;;;;4985453;28;20030;-64
2021/08/26 11:17:04;;;;;;;8.70;6.18;;;18.70;66.70;;;;;;4977569;28;20037;-65
2021/08/26 11:19:37;;;;;;;8.23;6.30;;;18.60;67.10;;;;;;4981774;28;20433;-65
2021/08/26 11:22:06;;;;;;;10.20;6.90;;;18.60;67.60;;;;;;4982041;28;20050;-64
2021/08/26 11:24:34;;;;;;;8.82;6.47;;;18.50;68.10;;;;;;4983268;28;20038;-65
2021/08/26 11:27:09;;;;;;;9.32;6.28;;;18.40;68.10;;;;;;4983728;28;20522;-65
2021/08/26 11:29:36;;;;;;;9.98;6.13;;;18.30;68.50;;;;;;4987382;28;20498;-64
2021/08/26 11:32:06;;;;;;;8.98;6.85;;;18.30;68.60;;;;;;4996507;28;20023;-63
2021/08/26 11:34:35;;;;;;;8.55;6.68;;;18.20;68.60;;;;;;4981971;28;20494;-64
2021/08/26 11:37:09;;;;;;;9.55;6.25;;;18.10;68.70;;;;;;4986879;28;20034;-65
2021/08/26 11:39:44;;;;;;;8.73;6.70;;;18.10;69.80;;;;;;4983093;28;20046;-65
2021/08/26 11:42:24;;;;;;;9.67;7.20;;;18.00;69.80;;;;;;4976886;28;20417;-65
2021/08/26 11:45:17;;;;;;;10.77;7.50;;;18.00;70.40;;;;;;4982299;28;20053;-65
2021/08/26 11:47:51;;;;;;;10.40;7.97;;;17.90;70.70;;;;;;4980674;28;20368;-65
2021/08/26 11:50:30;;;;;;;9.17;7.47;;;17.80;71.90;;;;;;4979014;28;20128;-65
2021/08/26 11:53:05;;;;;;;19.60;8.48;;;17.80;71.30;;;;;;4982166;28;20645;-64
2021/08/26 11:55:32;;;;;;;;;;;17.80;71.40;;;;;;4978790;28;20169;-64
2021/08/26 11:58:00;;;;;;;9.55;7.53;;;17.80;71.60;;;;;;4986185;28;19924;-65
2021/08/26 12:00:26;;;;;;;9.93;7.95;;;17.80;70.90;;;;;;4983235;28;20043;-65
2021/08/26 12:02:54;;;;;;;11.82;8.25;;;17.70;71.10;;;;;;4983154;28;20042;-65
2021/08/26 12:05:21;;;;;;;11.20;8.00;;;17.70;71.10;;;;;;4984016;28;20405;-65
2021/08/26 12:07:49;;;;;;;10.27;7.78;;;17.80;71.10;;;;;;4985478;28;20038;-65
2021/08/26 12:10:24;;;;;;;10.30;7.88;;;17.80;71.30;;;;;;4997202;28;20122;-65
2021/08/26 12:12:56;;;;;;;11.10;7.53;;;17.80;71.70;;;;;;4976124;28;20049;-64
2021/08/26 12:15:36;;;;;;;8.98;7.22;;;17.80;71.50;;;;;;4985755;28;20030;-64
2021/08/26 12:18:05;;;;;;;10.13;7.47;;;17.90;71.80;;;;;;4992804;28;20445;-65
2021/08/26 12:20:34;;;;;;;11.65;8.55;;;18.00;71.10;;;;;;4983941;28;20038;-65
2021/08/26 12:23:01;;;;;;;10.05;8.00;;;18.00;71.00;;;;;;4993403;28;20042;-64
2021/08/26 12:25:30;;;;;;;8.07;7.00;;;18.10;71.10;;;;;;4983346;28;20596;-64
2021/08/26 12:27:58;;;;;;;9.35;7.13;;;18.10;70.40;;;;;;4995561;28;20042;-65
2021/08/26 12:30:31;;;;;;;10.43;7.43;;;18.20;69.90;;;;;;4995185;28;20054;-65
2021/08/26 12:33:19;;;;;;;10.15;7.00;;;18.30;70.40;;;;;;4982636;28;20402;-65
2021/08/26 12:35:47;;;;;;;9.48;6.38;;;18.30;68.60;;;;;;4977183;28;20135;-65
2021/08/26 12:38:15;;;;;;;7.57;5.20;;;18.40;68.70;;;;;;4986049;28;20109;-63
2021/08/26 12:40:53;;;;;;;7.80;5.20;;;18.40;67.60;;;;;;4995056;28;20056;-65
2021/08/26 12:43:21;;;;;;;7.97;5.63;;;18.50;67.40;;;;;;4984380;28;20034;-64
2021/08/26 12:45:47;;;;;;;7.28;5.70;;;18.50;67.70;;;;;;4999414;28;20113;-65
2021/08/26 12:48:40;;;;;;;6.93;5.43;;;18.50;67.60;;;;;;5003129;28;20121;-65
2021/08/26 12:51:49;;;;;;;9.52;5.15;;;18.50;67.60;;;;;;4982909;28;20034;-65
2021/08/26 12:54:15;;;;;;;6.45;5.15;;;18.50;67.80;;;;;;4987471;28;20034;-65